createdAt,value
2023-01-19T00:00:16.037Z,26.52
2023-01-19T00:02:43.604Z,12.85
2023-01-19T00:05:11.702Z,24.88
2023-01-19T00:07:40.963Z,21.05
2023-01-19T00:10:09.598Z,9.35
2023-01-19T00:12:37.250Z,28.08
2023-01-19T00:15:05.438Z,21.08
2023-01-19T00:17:32.981Z,33.38
2023-01-19T00:20:00.571Z,19.02
2023-01-19T00:22:27.957Z,24.60
2023-01-19T00:24:56.714Z,20.30
2023-01-19T00:27:24.849Z,15.95
2023-01-19T00:29:52.264Z,16.70
2023-01-19T00:32:20.469Z,25.55
2023-01-19T00:34:49.694Z,22.67
2023-01-19T00:37:17.534Z,23.75
2023-01-19T00:39:45.290Z,30.48
2023-01-19T00:42:32.397Z,19.75
2023-01-19T00:44:59.873Z,19.52
2023-01-19T00:47:27.136Z,22.27
2023-01-19T00:49:54.610Z,26.23
2023-01-19T00:52:21.929Z,21.05
2023-01-19T00:54:49.310Z,22.30
2023-01-19T00:57:19.299Z,18.13
2023-01-19T00:59:46.947Z,30.45
2023-01-19T01:02:14.602Z,20.27
2023-01-19T01:04:41.942Z,29.08
2023-01-19T01:07:09.098Z,28.58
2023-01-19T01:09:36.543Z,15.10
2023-01-19T01:12:04.353Z,18.88
2023-01-19T01:14:34.877Z,26.52
2023-01-19T01:17:02.198Z,25.27
2023-01-19T01:19:29.740Z,17.80
2023-01-19T01:21:57.354Z,22.50
2023-01-19T01:24:24.852Z,12.35
2023-01-19T01:26:52.191Z,21.73
2023-01-19T01:29:19.624Z,28.13
2023-01-19T01:31:48.393Z,28.77
2023-01-19T01:34:16.721Z,27.73
2023-01-19T01:36:44.443Z,14.13
2023-01-19T01:39:11.740Z,25.00
2023-01-19T01:41:38.957Z,26.23
2023-01-19T01:44:38.893Z,22.65
2023-01-19T01:49:34.706Z,26.85
2023-01-19T01:52:02.359Z,30.95
2023-01-19T01:54:32.245Z,14.68
2023-01-19T01:57:03.965Z,21.58
2023-01-19T01:59:39.494Z,28.92
2023-01-19T02:02:29.843Z,20.65
2023-01-19T02:05:04.210Z,26.23
2023-01-19T02:07:57.602Z,16.77
2023-01-19T02:10:43.579Z,17.48
2023-01-19T02:13:18.866Z,21.58
2023-01-19T02:15:46.792Z,33.72
2023-01-19T02:18:15.845Z,33.70
2023-01-19T02:20:48.632Z,31.67
2023-01-19T02:23:23.699Z,22.48
2023-01-19T02:25:53.672Z,32.33
2023-01-19T02:28:21.578Z,18.50
2023-01-19T02:30:48.918Z,21.58
2023-01-19T02:33:16.301Z,22.65
2023-01-19T02:35:45.971Z,31.17
2023-01-19T02:38:15.411Z,18.80
2023-01-19T02:40:45.584Z,32.58
2023-01-19T02:43:16.512Z,32.08
2023-01-19T02:45:44.491Z,16.85
2023-01-19T02:48:12.177Z,30.55
2023-01-19T02:50:43.712Z,27.67
2023-01-19T02:53:38.510Z,30.02
2023-01-19T02:56:23.442Z,20.85
2023-01-19T02:58:58.577Z,33.00
2023-01-19T03:01:38.287Z,22.70
2023-01-19T03:04:14.693Z,19.23
2023-01-19T03:06:46.853Z,6.65
2023-01-19T03:09:22.165Z,27.80
2023-01-19T03:11:54.961Z,12.40
2023-01-19T03:14:28.839Z,14.48
2023-01-19T03:16:59.422Z,26.67
2023-01-19T03:19:32.114Z,18.55
2023-01-19T03:22:03.208Z,13.35
2023-01-19T03:24:36.908Z,18.67
2023-01-19T03:27:08.812Z,28.25
2023-01-19T03:29:42.395Z,25.05
2023-01-19T03:32:14.507Z,15.20
2023-01-19T03:34:43.403Z,16.08
2023-01-19T03:37:11.655Z,27.10
2023-01-19T03:39:39.120Z,19.38
2023-01-19T03:42:10.004Z,26.88
2023-01-19T03:44:40.495Z,20.88
2023-01-19T03:47:11.132Z,27.40
2023-01-19T03:49:41.255Z,15.02
2023-01-19T03:52:08.802Z,24.90
2023-01-19T03:54:36.447Z,22.55
2023-01-19T03:57:04.015Z,19.77
2023-01-19T03:59:31.425Z,29.65
2023-01-19T04:02:00.394Z,24.88
2023-01-19T04:04:27.958Z,23.48
2023-01-19T04:06:55.274Z,23.17
2023-01-19T04:09:22.525Z,29.85
2023-01-19T04:11:49.861Z,24.60
2023-01-19T04:14:17.344Z,23.27
2023-01-19T04:16:44.693Z,18.30
2023-01-19T04:19:13.545Z,22.15
2023-01-19T04:21:40.943Z,22.73
2023-01-19T04:24:10.000Z,18.90
2023-01-19T04:26:37.212Z,12.18
2023-01-19T04:29:04.644Z,19.17
2023-01-19T04:31:32.016Z,19.00
2023-01-19T04:33:59.434Z,11.70
2023-01-19T04:36:28.509Z,18.95
2023-01-19T04:38:55.918Z,16.50
2023-01-19T04:41:23.102Z,18.17
2023-01-19T04:43:50.511Z,18.45
2023-01-19T04:46:17.801Z,24.17
2023-01-19T04:48:45.307Z,16.17
2023-01-19T04:51:12.619Z,19.60
2023-01-19T04:53:41.494Z,25.65
2023-01-19T04:56:08.813Z,13.65
2023-01-19T04:58:36.800Z,17.40
2023-01-19T05:01:08.251Z,15.75
2023-01-19T05:03:35.748Z,21.17
2023-01-19T05:06:03.223Z,19.48
2023-01-19T05:08:30.980Z,26.75
2023-01-19T05:11:00.126Z,15.48
2023-01-19T05:13:27.413Z,26.77
2023-01-19T05:15:54.817Z,9.68
2023-01-19T05:18:22.211Z,19.65
2023-01-19T05:20:49.527Z,28.15
2023-01-19T05:23:16.762Z,29.05
2023-01-19T05:25:44.656Z,26.15
2023-01-19T05:28:13.343Z,28.83
2023-01-19T05:30:40.800Z,28.20
2023-01-19T05:33:08.314Z,23.58
2023-01-19T05:35:36.584Z,14.13
2023-01-19T05:38:04.175Z,22.30
2023-01-19T05:40:31.517Z,26.80
2023-01-19T05:43:02.282Z,21.75
2023-01-19T05:45:31.350Z,27.17
2023-01-19T05:47:58.797Z,26.15
2023-01-19T05:50:26.160Z,30.73
2023-01-19T05:52:53.571Z,20.70
2023-01-19T05:55:21.921Z,17.63
2023-01-19T05:57:49.526Z,21.38
2023-01-19T06:00:17.353Z,15.57
2023-01-19T06:02:48.053Z,9.30
2023-01-19T06:05:15.678Z,24.17
2023-01-19T06:07:43.128Z,25.73
2023-01-19T06:10:11.378Z,29.48
2023-01-19T06:12:39.745Z,19.88
2023-01-19T06:15:08.078Z,31.27
2023-01-19T06:17:35.710Z,30.83
2023-01-19T06:20:05.466Z,16.70
2023-01-19T06:22:32.703Z,20.13
2023-01-19T06:25:00.181Z,15.85
2023-01-19T06:27:27.664Z,15.80
2023-01-19T06:29:54.953Z,10.32
2023-01-19T06:32:22.442Z,19.83
2023-01-19T06:34:49.699Z,28.27
2023-01-19T06:37:18.438Z,24.10
2023-01-19T06:39:45.776Z,21.48
2023-01-19T06:42:13.158Z,30.05
2023-01-19T06:44:47.443Z,25.38
2023-01-19T06:47:16.363Z,24.70
2023-01-19T06:49:44.130Z,15.40
2023-01-19T06:52:11.653Z,26.75
2023-01-19T06:54:40.331Z,14.95
2023-01-19T06:57:07.523Z,26.67
2023-01-19T06:59:34.892Z,28.00
2023-01-19T07:02:26.543Z,20.52
2023-01-19T07:04:49.680Z,15.73
2023-01-19T07:07:16.985Z,28.15
2023-01-19T07:09:45.621Z,16.90
2023-01-19T07:12:12.940Z,27.25
2023-01-19T07:14:41.106Z,28.95
2023-01-19T07:17:08.828Z,18.80
2023-01-19T07:19:36.342Z,19.15
2023-01-19T07:22:03.737Z,29.70
2023-01-19T07:24:31.277Z,19.02
2023-01-19T07:27:00.268Z,19.60
2023-01-19T07:29:27.647Z,17.70
2023-01-19T07:31:55.444Z,24.45
2023-01-19T07:34:22.755Z,29.77
2023-01-19T07:36:50.073Z,22.00
2023-01-19T07:39:17.538Z,30.25
2023-01-19T07:41:44.918Z,24.48
2023-01-19T07:44:13.814Z,26.10
2023-01-19T07:46:41.343Z,19.27
2023-01-19T07:49:08.915Z,25.08
2023-01-19T07:51:36.371Z,21.27
2023-01-19T07:54:03.920Z,22.45
2023-01-19T07:56:33.918Z,23.67
2023-01-19T07:59:01.489Z,31.23
2023-01-19T08:01:31.639Z,18.92
2023-01-19T08:03:59.149Z,29.05
2023-01-19T08:06:32.875Z,22.80
2023-01-19T08:09:00.330Z,23.65
2023-01-19T08:11:27.667Z,25.98
2023-01-19T08:13:54.861Z,35.80
2023-01-19T08:16:22.046Z,34.75
2023-01-19T08:18:50.914Z,26.13
2023-01-19T08:21:18.385Z,29.55
2023-01-19T08:23:52.525Z,18.73
2023-01-19T08:26:21.413Z,24.08
2023-01-19T08:28:48.865Z,26.27
2023-01-19T08:31:21.101Z,24.92
2023-01-19T08:33:51.679Z,13.93
2023-01-19T08:36:19.178Z,24.15
2023-01-19T08:38:46.923Z,20.65
2023-01-19T08:41:15.675Z,11.10
2023-01-19T08:43:43.264Z,22.88
2023-01-19T08:46:10.673Z,18.23
2023-01-19T08:48:39.834Z,19.48
2023-01-19T08:51:08.728Z,21.02
2023-01-19T08:53:36.040Z,20.92
2023-01-19T08:56:03.657Z,14.88
2023-01-19T08:58:32.393Z,21.92
2023-01-19T09:01:01.995Z,25.73
2023-01-19T09:03:30.356Z,20.65
2023-01-19T09:05:57.839Z,15.23
2023-01-19T09:08:26.553Z,24.70
2023-01-19T09:10:53.814Z,29.80
2023-01-19T09:13:21.417Z,22.80
2023-01-19T09:15:49.289Z,46.63
2023-01-19T09:18:18.899Z,29.67
2023-01-19T09:20:47.768Z,33.05
2023-01-19T09:23:16.971Z,12.65
2023-01-19T09:25:46.850Z,15.35
2023-01-19T09:28:16.373Z,16.42
2023-01-19T09:30:44.547Z,26.40
2023-01-19T09:33:13.566Z,31.33
2023-01-19T09:35:41.492Z,23.13
2023-01-19T09:38:09.401Z,34.38
2023-01-19T09:40:42.213Z,27.50
2023-01-19T09:43:20.650Z,32.42
2023-01-19T09:45:52.577Z,23.98
2023-01-19T09:48:39.476Z,35.38
2023-01-19T09:51:12.477Z,28.27
2023-01-19T09:53:50.687Z,36.03
2023-01-19T09:56:20.188Z,33.00
2023-01-19T09:58:51.204Z,29.00
2023-01-19T10:01:46.485Z,36.35
2023-01-19T10:04:32.572Z,12.70
2023-01-19T10:07:26.325Z,24.00
2023-01-19T10:10:14.061Z,23.95
2023-01-19T10:12:54.693Z,17.50
2023-01-19T10:15:31.848Z,33.58
2023-01-19T10:18:12.265Z,24.60
2023-01-19T10:20:43.672Z,35.00
2023-01-19T10:23:43.234Z,24.98
2023-01-19T10:26:16.105Z,28.05
2023-01-19T10:28:44.851Z,28.20
2023-01-19T10:31:14.617Z,30.92
2023-01-19T10:33:42.123Z,30.15
2023-01-19T10:36:17.677Z,19.98
2023-01-19T10:38:45.917Z,25.58
2023-01-19T10:41:20.253Z,32.65
2023-01-19T10:43:47.993Z,36.72
2023-01-19T10:46:26.454Z,42.35
2023-01-19T10:48:55.513Z,36.88
2023-01-19T10:51:23.498Z,27.17
2023-01-19T10:53:57.449Z,41.67
2023-01-19T10:56:28.149Z,35.50
2023-01-19T10:58:55.408Z,26.27
2023-01-19T11:01:26.366Z,37.92
2023-01-19T11:03:57.238Z,46.13
2023-01-19T11:06:28.886Z,38.22
2023-01-19T11:09:17.873Z,20.65
2023-01-19T11:11:48.267Z,11.15
2023-01-19T11:14:19.614Z,19.55
2023-01-19T11:16:51.996Z,48.92
2023-01-19T11:19:22.306Z,59.72
2023-01-19T11:21:49.626Z,59.80
2023-01-19T11:24:18.458Z,19.20
2023-01-19T11:26:48.233Z,48.00
2023-01-19T11:29:19.964Z,44.83
2023-01-19T11:31:49.400Z,34.80
2023-01-19T11:34:26.202Z,24.02
2023-01-19T11:36:58.907Z,28.95
2023-01-19T11:39:28.432Z,46.13
2023-01-19T11:41:58.433Z,52.45
2023-01-19T11:44:31.140Z,34.35
2023-01-19T11:47:02.373Z,47.63
2023-01-19T11:49:39.117Z,21.25
2023-01-19T11:52:15.647Z,25.27
2023-01-19T11:54:57.655Z,40.90
2023-01-19T11:57:25.897Z,29.30
2023-01-19T11:59:54.091Z,40.70
2023-01-19T12:02:28.540Z,42.20
2023-01-19T12:05:00.410Z,28.55
2023-01-19T12:07:32.006Z,20.38
2023-01-19T12:10:07.358Z,22.25
2023-01-19T12:12:40.191Z,21.67
2023-01-19T12:15:18.448Z,28.52
2023-01-19T12:17:50.373Z,40.42
2023-01-19T12:20:31.120Z,26.40
2023-01-19T12:23:09.335Z,45.63
2023-01-19T12:25:53.916Z,41.97
2023-01-19T12:28:28.815Z,43.45
2023-01-19T12:30:57.182Z,39.92
2023-01-19T12:33:37.922Z,16.65
2023-01-19T12:36:11.842Z,42.13
2023-01-19T12:38:50.437Z,8.40
2023-01-19T12:41:25.355Z,28.83
2023-01-19T12:44:19.215Z,31.48
2023-01-19T12:46:49.359Z,24.10
2023-01-19T12:49:25.391Z,24.63
2023-01-19T12:51:55.874Z,41.28
2023-01-19T12:54:31.683Z,30.98
2023-01-19T12:57:02.208Z,33.63
2023-01-19T12:59:31.527Z,14.63
2023-01-19T13:02:50.900Z,23.55
2023-01-19T13:08:25.835Z,7.03
2023-01-19T13:11:13.829Z,14.30
2023-01-19T13:13:43.878Z,37.67
2023-01-19T13:16:47.296Z,12.52
2023-01-19T13:19:18.743Z,28.65
2023-01-19T13:21:47.844Z,42.55
2023-01-19T13:24:19.289Z,39.28
2023-01-19T13:26:55.525Z,19.30
2023-01-19T13:29:28.899Z,16.63
2023-01-19T13:32:02.622Z,31.25
2023-01-19T13:34:36.616Z,31.67
2023-01-19T13:37:06.246Z,46.45
2023-01-19T13:39:39.087Z,47.67
2023-01-19T13:42:17.308Z,28.88
2023-01-19T13:44:52.433Z,41.55
2023-01-19T13:47:34.057Z,45.13
2023-01-19T13:50:02.247Z,27.10
2023-01-19T13:52:30.884Z,19.70
2023-01-19T13:55:03.020Z,30.88
2023-01-19T14:00:15.681Z,24.67
2023-01-19T14:02:55.620Z,22.25
2023-01-19T14:05:25.741Z,16.17
2023-01-19T14:08:05.829Z,25.55
2023-01-19T14:10:35.991Z,47.03
2023-01-19T14:13:04.991Z,24.88
2023-01-19T14:15:34.360Z,32.20
2023-01-19T14:18:25.634Z,25.55
2023-01-19T14:21:06.189Z,30.02
2023-01-19T14:23:45.846Z,10.48
2023-01-19T14:26:46.885Z,39.33
2023-01-19T14:29:22.505Z,23.27
2023-01-19T14:31:53.007Z,28.48
2023-01-19T14:34:31.375Z,36.50
2023-01-19T14:36:59.014Z,37.60
2023-01-19T14:39:28.716Z,37.47
2023-01-19T14:42:00.038Z,24.27
2023-01-19T14:44:32.120Z,32.47
2023-01-19T14:47:03.050Z,37.47
2023-01-19T14:49:36.224Z,19.25
2023-01-19T14:52:06.509Z,34.28
2023-01-19T14:54:38.354Z,27.55
2023-01-19T14:57:11.566Z,28.60
2023-01-19T14:59:38.970Z,22.95
2023-01-19T15:02:06.631Z,25.63
2023-01-19T15:04:34.264Z,10.38
2023-01-19T15:07:01.750Z,18.73
2023-01-19T15:09:29.181Z,33.55
2023-01-19T15:11:56.577Z,21.85
2023-01-19T15:14:26.178Z,17.63
2023-01-19T15:16:53.545Z,31.17
2023-01-19T15:19:20.946Z,24.77
2023-01-19T15:21:48.443Z,31.27
2023-01-19T15:24:17.825Z,30.65
2023-01-19T15:26:45.474Z,28.08
2023-01-19T15:29:20.329Z,22.55
2023-01-19T15:31:49.400Z,30.20
2023-01-19T15:34:17.223Z,28.98
2023-01-19T15:36:44.936Z,21.20
2023-01-19T15:39:12.377Z,32.25
2023-01-19T15:41:40.584Z,30.65
2023-01-19T15:44:10.250Z,26.48
2023-01-19T15:46:37.876Z,42.35
2023-01-19T15:49:06.546Z,21.73
2023-01-19T15:51:34.032Z,25.23
2023-01-19T15:54:01.484Z,27.50
2023-01-19T15:56:30.501Z,21.25
2023-01-19T15:58:58.886Z,18.50
2023-01-19T16:01:37.196Z,24.27
2023-01-19T16:04:07.984Z,16.38
2023-01-19T16:06:35.746Z,17.42
2023-01-19T16:09:04.035Z,40.40
2023-01-19T16:11:33.819Z,28.15
2023-01-19T16:14:01.871Z,28.15
2023-01-19T16:16:29.271Z,36.83
2023-01-19T16:18:57.662Z,32.92
2023-01-19T16:21:26.775Z,18.85
2023-01-19T16:23:54.421Z,23.02
2023-01-19T16:26:30.578Z,35.60
2023-01-19T16:28:59.603Z,36.00
2023-01-19T16:31:27.891Z,31.35
2023-01-19T16:33:55.235Z,29.95
2023-01-19T16:36:25.549Z,28.08
2023-01-19T16:38:54.808Z,28.38
2023-01-19T16:41:22.472Z,49.78
2023-01-19T16:43:54.339Z,38.40
2023-01-19T16:46:23.443Z,25.17
2023-01-19T16:48:51.560Z,38.10
2023-01-19T16:51:21.831Z,23.23
2023-01-19T16:53:50.686Z,31.27
2023-01-19T16:56:19.614Z,27.63
2023-01-19T16:58:47.153Z,39.92
2023-01-19T17:01:19.594Z,31.50
2023-01-19T17:03:48.146Z,48.55
2023-01-19T17:06:18.618Z,35.05
2023-01-19T17:08:46.730Z,60.88
2023-01-19T17:11:21.039Z,37.17
2023-01-19T17:13:49.020Z,38.88
2023-01-19T17:16:19.375Z,13.88
2023-01-19T17:18:46.864Z,18.20
2023-01-19T17:21:17.981Z,40.58
2023-01-19T17:23:47.508Z,21.95
2023-01-19T17:26:15.184Z,25.02
2023-01-19T17:28:44.448Z,38.55
2023-01-19T17:31:13.582Z,38.40
2023-01-19T17:33:43.145Z,39.80
2023-01-19T17:36:13.095Z,25.23
2023-01-19T17:38:41.203Z,41.60
2023-01-19T17:41:13.624Z,18.48
2023-01-19T17:43:41.246Z,26.40
2023-01-19T17:46:10.735Z,69.88
2023-01-19T17:48:38.455Z,44.95
2023-01-19T17:51:07.851Z,18.42
2023-01-19T17:53:39.735Z,73.25
2023-01-19T17:56:09.467Z,89.00
2023-01-19T17:58:39.561Z,28.55
2023-01-19T18:01:13.326Z,37.80
2023-01-19T18:03:41.128Z,33.45
2023-01-19T18:06:08.456Z,61.58
2023-01-19T18:08:38.786Z,48.60
2023-01-19T18:11:07.448Z,62.33
2023-01-19T18:13:35.337Z,57.72
2023-01-19T18:16:05.171Z,6.53
2023-01-19T18:18:34.163Z,71.68
2023-01-19T18:21:02.527Z,78.28
2023-01-19T18:23:30.201Z,89.45
2023-01-19T18:26:01.376Z,45.20
2023-01-19T18:28:29.307Z,81.53
2023-01-19T18:30:56.930Z,36.72
2023-01-19T18:33:24.821Z,64.68
2023-01-19T18:35:54.065Z,62.92
2023-01-19T18:38:21.892Z,46.13
2023-01-19T18:40:49.139Z,53.13
2023-01-19T18:43:16.530Z,34.10
2023-01-19T18:45:47.127Z,79.70
2023-01-19T18:48:14.494Z,53.40
2023-01-19T18:50:42.914Z,23.38
2023-01-19T18:53:11.564Z,53.30
2023-01-19T18:55:38.822Z,40.40
2023-01-19T18:58:07.250Z,45.53
2023-01-19T19:00:34.746Z,83.05
2023-01-19T19:03:02.164Z,56.03
2023-01-19T19:05:29.480Z,79.88
2023-01-19T19:07:57.085Z,86.05
2023-01-19T19:10:25.920Z,67.72
2023-01-19T19:12:53.500Z,77.53
2023-01-19T19:15:21.133Z,86.55
2023-01-19T19:17:48.700Z,95.72
2023-01-19T19:20:23.642Z,90.60
2023-01-19T19:22:51.862Z,98.80
2023-01-19T19:25:19.215Z,48.83
2023-01-19T19:27:50.843Z,49.05
2023-01-19T19:30:19.911Z,57.78
2023-01-19T19:32:53.000Z,56.55
2023-01-19T19:35:21.382Z,65.18
2023-01-19T19:37:48.910Z,87.55
2023-01-19T19:40:18.264Z,76.63
2023-01-19T19:42:45.604Z,63.85
2023-01-19T19:45:14.998Z,60.40
2023-01-19T19:47:45.551Z,84.10
2023-01-19T19:50:13.267Z,24.45
2023-01-19T19:52:41.354Z,60.30
2023-01-19T19:55:10.704Z,49.78
2023-01-19T19:57:38.507Z,59.97
2023-01-19T20:00:07.378Z,63.53
2023-01-19T20:02:39.184Z,65.15
2023-01-19T20:05:06.956Z,62.67
2023-01-19T20:07:34.240Z,78.38
2023-01-19T20:10:01.550Z,61.90
2023-01-19T20:12:30.514Z,70.13
2023-01-19T20:14:57.911Z,70.18
2023-01-19T20:17:25.406Z,72.38
2023-01-19T20:19:54.177Z,21.98
2023-01-19T20:22:21.767Z,62.83
2023-01-19T20:24:51.466Z,44.08
2023-01-19T20:27:19.035Z,54.97
2023-01-19T20:29:51.422Z,100.53
2023-01-19T20:32:19.248Z,69.75
2023-01-19T20:34:46.727Z,81.68
2023-01-19T20:37:15.383Z,38.40
2023-01-19T20:39:42.832Z,77.97
2023-01-19T20:42:11.709Z,53.05
2023-01-19T20:44:39.379Z,56.72
2023-01-19T20:47:06.913Z,82.88
2023-01-19T20:49:34.209Z,22.25
2023-01-19T20:52:01.390Z,83.47
2023-01-19T20:54:30.664Z,74.50
2023-01-19T20:56:58.164Z,88.10
2023-01-19T20:59:25.971Z,87.00
2023-01-19T21:01:53.540Z,83.20
2023-01-19T21:04:20.959Z,51.17
2023-01-19T21:06:48.549Z,46.47
2023-01-19T21:09:15.797Z,65.70
2023-01-19T21:11:45.052Z,102.18
2023-01-19T21:14:12.597Z,50.60
2023-01-19T21:16:40.394Z,57.53
2023-01-19T21:19:07.727Z,65.22
2023-01-19T21:21:35.089Z,56.08
2023-01-19T21:24:03.416Z,50.83
2023-01-19T21:26:31.582Z,50.08
2023-01-19T21:29:01.850Z,64.40
2023-01-19T21:31:29.873Z,49.25
2023-01-19T21:33:58.187Z,77.47
2023-01-19T21:36:26.195Z,70.18
2023-01-19T21:38:55.804Z,42.58
2023-01-19T21:41:23.153Z,56.70
2023-01-19T21:43:50.484Z,62.38
2023-01-19T21:46:20.821Z,57.10
2023-01-19T21:48:48.499Z,77.97
2023-01-19T21:51:16.100Z,42.38
2023-01-19T21:53:43.567Z,64.43
2023-01-19T21:56:11.760Z,59.38
2023-01-19T21:58:39.228Z,46.97
2023-01-19T22:01:11.016Z,34.10
2023-01-19T22:03:40.064Z,54.67
2023-01-19T22:06:09.428Z,75.97
2023-01-19T22:08:37.132Z,55.22
2023-01-19T22:11:05.320Z,66.35
2023-01-19T22:13:33.537Z,71.65
2023-01-19T22:16:01.760Z,17.67
2023-01-19T22:18:29.193Z,65.03
2023-01-19T22:21:07.837Z,72.47
2023-01-19T22:23:35.305Z,31.20
2023-01-19T22:26:02.715Z,46.13
2023-01-19T22:28:30.018Z,25.52
2023-01-19T22:31:02.958Z,56.92
2023-01-19T22:33:30.575Z,47.33
2023-01-19T22:36:12.482Z,42.50
2023-01-19T22:38:40.297Z,47.00
2023-01-19T22:41:15.421Z,42.33
2023-01-19T22:43:43.779Z,30.35
2023-01-19T22:46:11.275Z,41.45
2023-01-19T22:48:40.502Z,63.17
2023-01-19T22:51:07.978Z,33.95
2023-01-19T22:53:36.688Z,36.90
2023-01-19T22:56:11.194Z,38.58
2023-01-19T22:58:40.551Z,29.48
2023-01-19T23:01:08.768Z,51.08
2023-01-19T23:03:36.610Z,54.28
2023-01-19T23:06:05.399Z,47.50
2023-01-19T23:08:33.154Z,60.80
2023-01-19T23:11:06.005Z,50.20
2023-01-19T23:16:01.084Z,28.50
2023-01-19T23:18:28.676Z,65.55
2023-01-19T23:20:56.081Z,39.05
2023-01-19T23:23:23.437Z,60.50
2023-01-19T23:25:50.629Z,52.88
2023-01-19T23:28:19.208Z,42.22
2023-01-19T23:30:46.731Z,59.53
2023-01-19T23:33:14.059Z,34.38
2023-01-19T23:35:41.358Z,21.45
2023-01-19T23:38:08.609Z,41.00
2023-01-19T23:40:35.978Z,35.35
2023-01-19T23:43:03.470Z,38.60
2023-01-19T23:45:34.377Z,34.83
2023-01-19T23:48:04.020Z,51.13
2023-01-19T23:50:31.250Z,50.45
2023-01-19T23:52:58.665Z,35.90
2023-01-19T23:55:27.517Z,35.83
2023-01-19T23:57:54.857Z,38.67
